Time;durP1;ratioP1;P1;durP2;ratioP2;P2;SDS_P1;SDS_P2;PMS_P1;PMS_P2;Temp;Humidity;BMP_temperature;BMP_pressure;BME280_temperature;BME280_humidity;BME280_pressure;Samples;Min_cycle;Max_cycle;Signal;HPM_P1;HPM_P2
2022/08/21 00:01:13;;;;;;;7.80;3.80;;;16.80;92.60;;;17.68;85.02;98263.72;5061946;28;20537;-78
2022/08/21 00:03:42;;;;;;;8.03;3.80;;;16.80;92.80;;;17.62;85.48;98259.34;5059690;28;20471;-78
2022/08/21 00:06:11;;;;;;;8.10;3.70;;;16.80;92.80;;;17.57;85.86;98261.84;5062905;28;20475;-78
2022/08/21 00:08:42;;;;;;;14.07;4.23;;;16.60;93.00;;;17.50;86.29;98255.81;5064032;28;20460;-80
2022/08/21 00:11:11;;;;;;;7.57;3.17;;;16.50;93.20;;;17.49;86.80;98259.53;5059977;28;20469;-78
2022/08/21 00:13:40;;;;;;;8.23;3.10;;;16.40;93.40;;;17.47;86.01;98257.09;5058739;28;20568;-78
2022/08/21 00:16:10;;;;;;;8.50;3.50;;;16.50;93.30;;;17.46;86.54;98255.47;5065619;28;20473;-79
2022/08/21 00:18:39;;;;;;;15.33;3.60;;;16.60;93.00;;;17.49;86.23;98259.53;5062247;28;20492;-78
2022/08/21 00:21:08;;;;;;;6.13;2.97;;;16.60;93.00;;;17.40;86.77;98256.38;5063009;28;20456;-78
2022/08/21 00:23:37;;;;;;;6.00;3.33;;;16.50;93.10;;;17.36;87.23;98249.91;5064495;28;20537;-78
2022/08/21 00:26:07;;;;;;;6.77;3.10;;;16.40;93.30;;;17.34;87.75;98245.91;5063011;28;20467;-79
2022/08/21 00:28:37;;;;;;;5.97;3.10;;;16.30;93.50;;;17.19;89.03;98248.13;5059171;28;20478;-79
2022/08/21 00:31:07;;;;;;;9.30;3.13;;;16.20;93.60;;;17.16;89.01;98249.38;5060109;28;20471;-79
2022/08/21 00:33:37;;;;;;;6.43;2.73;;;16.20;93.70;;;17.13;89.40;98249.03;5029276;28;20467;-79
2022/08/21 00:36:06;;;;;;;6.07;2.73;;;16.30;93.70;;;17.12;89.15;98253.50;5060804;28;20464;-78
2022/08/21 00:38:34;;;;;;;6.20;3.20;;;16.30;93.50;;;17.05;89.77;98247.50;5060679;28;20990;-78
2022/08/21 00:41:08;;;;;;;6.93;3.30;;;16.20;93.60;;;17.15;88.83;98250.41;5062802;28;20463;-79
2022/08/21 00:43:57;;;;;;;5.97;2.83;;;16.30;93.40;;;17.13;89.13;98243.75;5062614;28;20506;-78
2022/08/21 00:46:26;;;;;;;5.73;3.07;;;16.20;93.70;;;17.08;89.35;98242.56;5060017;28;21423;-79
2022/08/21 00:48:57;;;;;;;5.63;3.17;;;16.10;93.90;;;17.05;89.90;98247.50;5061458;28;20558;-79
2022/08/21 00:51:36;;;;;;;17.87;3.00;;;16.10;93.90;;;17.00;90.18;98245.53;5061684;28;20468;-78
2022/08/21 00:54:08;;;;;;;9.70;3.90;;;16.10;93.80;;;16.98;90.37;98246.78;5061224;28;20818;-79
2022/08/21 00:56:50;;;;;;;7.23;3.97;;;16.10;94.00;;;16.88;91.17;98241.22;5060472;28;20459;-79
2022/08/21 00:59:26;;;;;;;6.67;3.60;;;16.00;94.10;;;16.83;91.41;98238.44;5060509;28;21377;-79
2022/08/21 01:01:55;;;;;;;5.53;3.17;;;16.00;93.80;;;16.73;92.48;98249.50;5058596;28;20507;-79
2022/08/21 01:04:25;;;;;;;6.13;3.00;;;16.00;93.90;;;16.70;93.01;98249.94;5063502;28;20472;-78
2022/08/21 01:06:56;;;;;;;8.73;3.37;;;15.90;94.10;;;16.71;92.99;98240.19;5060172;28;20457;-78
2022/08/21 01:09:26;;;;;;;7.10;3.00;;;15.80;94.30;;;16.71;93.05;98251.56;5061294;28;20464;-79
2022/08/21 01:11:56;;;;;;;6.70;3.60;;;15.90;94.20;;;16.71;92.93;98241.00;5061003;28;21042;-79
2022/08/21 01:14:25;;;;;;;12.30;3.60;;;15.90;94.20;;;16.68;92.87;98246.75;5062497;28;21111;-86
2022/08/21 01:16:57;;;;;;;15.70;3.73;;;15.80;94.30;;;16.67;93.14;98241.66;5061589;28;20539;-78
2022/08/21 01:19:28;;;;;;;5.90;2.93;;;15.80;94.40;;;16.60;93.59;98239.91;5061755;28;20495;-78
2022/08/21 01:21:59;;;;;;;7.90;3.50;;;15.70;94.40;;;16.50;94.20;98244.88;5063680;28;20550;-78
2022/08/21 01:24:28;;;;;;;7.10;3.30;;;15.60;94.60;;;16.47;94.77;98245.31;5063365;28;21305;-78
2022/08/21 01:26:57;;;;;;;16.43;3.20;;;15.60;94.60;;;16.46;95.12;98246.34;5063250;28;20488;-78
2022/08/21 01:29:36;;;;;;;5.63;3.30;;;15.60;94.70;;;16.55;94.70;98250.34;5067141;28;20490;-78
2022/08/21 01:32:10;;;;;;;4.50;2.90;;;15.60;94.60;;;16.57;94.08;98248.28;5063349;28;20510;-78
2022/08/21 01:34:42;;;;;;;7.60;3.77;;;15.60;94.60;;;16.51;94.24;98246.50;5063679;28;20461;-78
2022/08/21 01:37:13;;;;;;;6.30;2.97;;;15.60;94.70;;;16.44;95.15;98247.59;5065748;28;20826;-78
2022/08/21 01:39:46;;;;;;;8.27;3.60;;;15.50;94.80;;;16.33;95.86;98243.84;5062657;28;20862;-78
2022/08/21 01:42:15;;;;;;;10.43;3.60;;;15.40;94.90;;;16.35;95.79;98247.06;5062343;28;21416;-78
2022/08/21 01:44:45;;;;;;;10.40;3.90;;;15.40;94.90;;;16.33;95.87;98243.84;5064934;28;20918;-78
2022/08/21 01:47:17;;;;;;;6.10;2.97;;;15.40;95.00;;;16.26;96.76;98248.38;5063994;28;20456;-78
2022/08/21 01:49:47;;;;;;;8.20;3.33;;;15.30;95.10;;;16.27;96.64;98247.34;5062739;28;20464;-78
2022/08/21 01:52:19;;;;;;;22.50;3.73;;;15.40;95.10;;;16.24;96.89;98250.44;5066500;28;20514;-78
2022/08/21 01:54:49;;;;;;;5.93;3.80;;;15.30;95.10;;;16.23;97.38;98253.28;5065823;28;20509;-78
2022/08/21 01:57:23;;;;;;;11.10;3.77;;;15.20;95.20;;;16.19;97.56;98247.63;5062988;28;21080;-78
2022/08/21 01:59:53;;;;;;;8.43;3.63;;;15.20;95.10;;;16.13;97.95;98239.78;5063637;28;20491;-78
2022/08/21 02:02:22;;;;;;;9.53;3.50;;;15.30;95.20;;;16.07;98.37;98244.88;5065459;28;20525;-78
2022/08/21 02:04:51;;;;;;;6.70;3.13;;;15.20;95.20;;;16.04;98.94;98241.88;5061006;28;20959;-78
2022/08/21 02:07:21;;;;;;;7.23;3.40;;;15.20;95.50;;;15.99;98.56;98241.72;5063025;28;20461;-78
2022/08/21 02:09:49;;;;;;;5.20;3.57;;;15.20;95.10;;;15.92;99.24;98244.44;5061761;28;20499;-78
2022/08/21 02:12:18;;;;;;;9.27;3.53;;;15.10;95.20;;;15.83;100.00;98242.25;5063466;28;20552;-77
2022/08/21 02:14:47;;;;;;;10.10;3.70;;;15.10;95.40;;;15.82;100.00;98236.19;5061135;28;20544;-78
2022/08/21 02:17:15;;;;;;;7.30;3.47;;;15.00;95.50;;;15.84;100.00;98243.88;5062659;28;20488;-78
2022/08/21 02:19:45;;;;;;;4.77;3.30;;;15.00;95.60;;;15.78;100.00;98239.47;5060117;28;20484;-78
2022/08/21 02:22:14;;;;;;;8.07;3.37;;;15.00;95.50;;;15.73;100.00;98242.75;5061661;28;20522;-78
2022/08/21 02:24:43;;;;;;;9.97;3.60;;;14.90;95.60;;;15.73;100.00;98231.38;5062234;28;20464;-78
2022/08/21 02:27:24;;;;;;;6.60;3.40;;;14.80;95.90;;;15.81;100.00;98228.50;5062341;28;20464;-78
2022/08/21 02:29:58;;;;;;;9.77;3.53;;;14.90;95.80;;;15.86;100.00;98236.56;5061463;28;20464;-78
2022/08/21 02:32:27;;;;;;;6.30;3.60;;;14.90;95.60;;;15.83;100.00;98236.97;5058558;28;20480;-78
2022/08/21 02:34:55;;;;;;;9.37;3.87;;;15.00;95.50;;;15.82;100.00;98224.84;5058417;28;20522;-78
2022/08/21 02:37:25;;;;;;;4.60;2.70;;;15.00;95.70;;;15.74;100.00;98228.53;5060154;28;20954;-78
2022/08/21 02:39:56;;;;;;;4.90;2.73;;;14.90;95.70;;;15.65;100.00;98234.31;5060147;28;20504;-78
2022/08/21 02:42:25;;;;;;;9.40;3.07;;;14.80;95.80;;;15.60;100.00;98238.38;5062198;28;20488;-78
2022/08/21 02:44:53;;;;;;;5.80;3.33;;;14.70;95.90;;;15.53;100.00;98235.00;5060091;28;20472;-78
2022/08/21 02:47:23;;;;;;;6.47;3.03;;;14.60;96.40;;;15.42;100.00;98238.28;5061041;28;20488;-78
2022/08/21 02:49:54;;;;;;;8.50;3.67;;;14.60;96.20;;;15.43;100.00;98236.44;5061072;28;20885;-78
2022/08/21 02:52:23;;;;;;;6.87;3.33;;;14.60;96.30;;;15.43;100.00;98234.63;5058833;28;20551;-78
2022/08/21 02:54:52;;;;;;;5.30;2.83;;;14.60;96.30;;;15.38;100.00;98229.19;5060220;28;20518;-78
2022/08/21 02:57:22;;;;;;;9.00;3.37;;;14.60;96.30;;;15.38;100.00;98229.19;5062462;28;20467;-78
2022/08/21 02:59:51;;;;;;;5.77;3.43;;;14.60;96.10;;;15.42;100.00;98233.00;5059212;28;20491;-78
2022/08/21 03:02:21;;;;;;;7.43;3.40;;;14.60;95.90;;;15.44;100.00;98227.53;5060873;28;20461;-78
2022/08/21 03:04:50;;;;;;;5.43;3.07;;;14.60;96.00;;;15.33;100.00;98231.66;5065126;28;20460;-78
2022/08/21 03:07:18;;;;;;;5.70;3.07;;;14.60;96.20;;;15.21;100.00;98227.25;5060068;28;20507;-78
2022/08/21 03:09:47;;;;;;;10.43;3.47;;;14.40;96.30;;;15.22;100.00;98223.59;5057061;28;20495;-78
2022/08/21 03:12:25;;;;;;;6.53;2.83;;;14.40;96.60;;;15.24;100.00;98211.84;5058475;28;20464;-78
2022/08/21 03:14:57;;;;;;;7.20;3.17;;;14.40;96.50;;;15.20;100.00;98215.94;5063609;28;21109;-78
2022/08/21 03:17:28;;;;;;;7.07;3.00;;;14.40;96.60;;;15.18;100.00;98212.69;5059872;28;20464;-78
2022/08/21 03:19:58;;;;;;;10.33;3.73;;;14.30;96.60;;;15.22;100.00;98205.97;5061801;28;20900;-78
2022/08/21 03:22:28;;;;;;;7.63;2.90;;;14.30;96.60;;;15.25;100.00;98210.81;5061530;28;20525;-78
2022/08/21 03:24:59;;;;;;;12.73;3.40;;;14.30;96.80;;;15.24;100.00;98217.09;5061440;28;20460;-78
2022/08/21 03:27:30;;;;;;;6.43;3.20;;;14.30;96.30;;;15.14;100.00;98214.13;5063300;28;20463;-78
2022/08/21 03:29:59;;;;;;;8.93;3.20;;;14.30;96.40;;;15.11;100.00;98211.91;5061528;28;20460;-78
2022/08/21 03:32:28;;;;;;;11.90;3.77;;;14.20;96.70;;;15.10;100.00;98215.56;5061177;28;20468;-79
2022/08/21 03:34:57;;;;;;;6.00;3.13;;;14.20;97.00;;;15.10;100.00;98213.75;5063326;28;20501;-78
2022/08/21 03:37:26;;;;;;;11.13;3.83;;;14.20;96.80;;;15.13;100.00;98215.94;5059722;28;20934;-78
2022/08/21 03:39:55;;;;;;;7.93;3.13;;;14.20;96.60;;;15.09;100.00;98214.78;5059167;28;20496;-78
2022/08/21 03:42:24;;;;;;;6.07;3.43;;;14.20;96.80;;;14.95;100.00;98215.88;5057814;28;20482;-78
2022/08/21 03:44:54;;;;;;;7.17;2.80;;;14.10;96.70;;;14.86;100.00;98219.75;5061008;28;20476;-78
2022/08/21 03:47:23;;;;;;;7.53;3.80;;;14.10;97.00;;;14.85;100.00;98212.06;5060368;28;20558;-78
2022/08/21 03:49:53;;;;;;;7.10;2.93;;;14.00;97.10;;;14.85;100.00;98212.06;5060392;28;20468;-78
2022/08/21 03:52:23;;;;;;;4.70;3.20;;;14.00;97.10;;;14.89;100.00;98218.53;5057773;28;20473;-78
2022/08/21 03:54:52;;;;;;;4.90;2.70;;;14.00;97.00;;;14.89;100.00;98219.31;5062948;28;20460;-78
2022/08/21 03:57:21;;;;;;;14.47;3.30;;;14.00;97.00;;;14.89;100.00;98226.44;5060438;28;21016;-78
2022/08/21 03:59:50;;;;;;;9.83;3.10;;;14.00;97.10;;;14.88;100.00;98215.09;5058522;28;20467;-78
2022/08/21 04:02:22;;;;;;;4.70;3.20;;;14.00;97.30;;;14.83;100.00;98225.44;5059946;28;20476;-78
2022/08/21 04:04:52;;;;;;;3.70;2.83;;;14.00;97.30;;;14.69;100.00;98223.88;5060230;28;20530;-78
2022/08/21 04:07:21;;;;;;;7.83;3.63;;;13.90;97.20;;;14.67;100.00;98225.91;5059043;28;20504;-78
2022/08/21 04:09:50;;;;;;;10.20;4.07;;;13.80;97.60;;;14.73;100.00;98234.78;5056920;28;20471;-77
2022/08/21 04:12:19;;;;;;;8.67;3.40;;;13.80;97.40;;;14.72;100.00;98236.59;5057246;28;20456;-78
2022/08/21 04:14:48;;;;;;;8.00;3.00;;;13.80;97.40;;;14.66;100.00;98237.44;5058360;28;20476;-78
2022/08/21 04:17:16;;;;;;;4.67;2.97;;;13.80;97.50;;;14.58;100.00;98238.47;5057417;28;20561;-78
2022/08/21 04:19:47;;;;;;;5.17;3.30;;;13.80;97.60;;;14.59;100.00;98242.75;5060266;28;21285;-78
2022/08/21 04:22:22;;;;;;;7.43;3.50;;;13.70;98.00;;;14.58;100.00;98243.75;5058940;28;21011;-78
2022/08/21 04:24:50;;;;;;;7.10;3.13;;;13.60;97.70;;;14.51;100.00;98242.97;5057837;28;20464;-78
2022/08/21 04:27:19;;;;;;;7.03;3.00;;;13.60;97.80;;;14.57;100.00;98243.97;5065284;28;20455;-78
2022/08/21 04:29:47;;;;;;;8.27;3.40;;;13.60;97.90;;;14.58;100.00;98249.00;5064257;28;20464;-78
2022/08/21 04:32:23;;;;;;;9.23;3.20;;;13.70;97.60;;;14.54;100.00;98245.16;5063865;28;20494;-78
2022/08/21 04:35:01;;;;;;;5.50;4.00;;;13.80;97.70;;;14.47;100.00;98251.50;5064505;28;20467;-78
2022/08/21 04:37:31;;;;;;;7.23;3.33;;;13.70;97.80;;;14.44;100.00;98259.78;5065040;28;20459;-78
2022/08/21 04:40:00;;;;;;;6.77;3.43;;;13.60;97.90;;;14.42;100.00;98253.91;5065481;28;20469;-78
2022/08/21 04:42:29;;;;;;;6.70;2.67;;;13.60;98.10;;;14.48;100.00;98253.09;5064102;28;20488;-78
2022/08/21 04:44:58;;;;;;;5.80;2.60;;;13.60;97.70;;;14.45;100.00;98251.69;5062913;28;20523;-78
2022/08/21 04:47:27;;;;;;;4.43;2.90;;;13.60;97.90;;;14.48;100.00;98253.09;5068995;28;20484;-78
2022/08/21 04:50:18;;;;;;;10.13;3.40;;;13.70;97.90;;;14.46;100.00;98253.31;5050006;28;20460;-78
2022/08/21 04:52:48;;;;;;;10.97;3.60;;;13.70;97.90;;;14.39;100.00;98255.16;5063878;28;21052;-78
2022/08/21 04:55:19;;;;;;;6.10;3.70;;;13.60;98.00;;;14.33;100.00;98260.41;5065229;28;20464;-78
2022/08/21 04:57:53;;;;;;;8.30;3.60;;;13.60;98.20;;;14.37;100.00;98256.38;5062332;28;20452;-78
2022/08/21 05:00:24;;;;;;;5.17;3.20;;;13.50;98.30;;;14.39;100.00;98255.16;5065075;28;20448;-77
2022/08/21 05:02:58;;;;;;;6.23;2.90;;;13.50;98.40;;;14.43;100.00;98261.63;5064031;28;20490;-77
2022/08/21 05:05:30;;;;;;;8.17;3.23;;;13.60;98.10;;;14.37;100.00;98259.78;5066743;28;21405;-78
2022/08/21 05:08:04;;;;;;;8.97;3.17;;;13.50;98.30;;;14.39;100.00;98259.59;5063530;28;20523;-78
2022/08/21 05:10:33;;;;;;;7.80;3.40;;;13.50;98.80;;;14.43;100.00;98261.63;5063697;28;20556;-78
2022/08/21 05:13:04;;;;;;;4.40;3.13;;;13.50;98.60;;;14.44;100.00;98257.94;5065559;28;20503;-78
2022/08/21 05:15:33;;;;;;;7.90;3.77;;;13.50;98.60;;;14.46;100.00;98261.19;5062713;28;20460;-78
2022/08/21 05:18:01;;;;;;;9.43;3.57;;;13.60;98.90;;;14.50;100.00;98269.50;5064611;28;20488;-78
2022/08/21 05:20:34;;;;;;;4.53;2.67;;;13.60;98.70;;;14.54;100.00;98265.44;5065318;28;20523;-78
2022/08/21 05:23:08;;;;;;;8.53;2.97;;;13.60;98.60;;;14.58;100.00;98264.81;5067000;28;20518;-78
2022/08/21 05:25:38;;;;;;;17.33;3.70;;;13.60;98.70;;;14.61;100.00;98258.34;5063346;28;20460;-78
2022/08/21 05:28:08;;;;;;;6.63;3.23;;;13.60;98.50;;;14.65;100.00;98256.09;5063124;28;21021;-78
2022/08/21 05:30:38;;;;;;;7.70;3.13;;;13.70;98.70;;;14.65;100.00;98262.16;5064365;28;20468;-78
2022/08/21 05:33:08;;;;;;;7.40;3.73;;;13.70;98.50;;;14.69;100.00;98265.16;5065808;28;20498;-78
2022/08/21 05:35:40;;;;;;;12.57;3.30;;;13.70;98.50;;;14.75;100.00;98264.38;5063338;28;20909;-78
2022/08/21 05:38:09;;;;;;;6.47;3.60;;;13.80;98.60;;;14.79;100.00;98261.09;5063468;28;20605;-77
2022/08/21 05:40:46;;;;;;;7.37;4.00;;;13.80;98.60;;;14.86;100.00;98261.06;5063845;28;20492;-78
2022/08/21 05:43:15;;;;;;;6.93;3.43;;;13.90;98.60;;;14.91;100.00;98261.25;5062715;28;20480;-78
2022/08/21 05:45:43;;;;;;;8.70;2.83;;;13.90;98.70;;;14.95;100.00;98265.09;5062332;28;20900;-78
2022/08/21 05:48:15;;;;;;;5.70;3.10;;;13.90;98.50;;;14.97;100.00;98265.69;5062568;28;20923;-77
2022/08/21 05:50:47;;;;;;;8.80;3.90;;;14.00;98.60;;;14.98;100.00;98265.47;5066382;28;20488;-78
2022/08/21 05:53:18;;;;;;;4.73;3.10;;;14.00;98.50;;;15.01;100.00;98261.63;5061858;28;20510;-78
2022/08/21 05:55:48;;;;;;;9.70;4.00;;;14.10;98.50;;;15.05;100.00;98260.19;5064132;28;20445;-78
2022/08/21 05:58:19;;;;;;;7.20;3.57;;;14.10;98.20;;;15.09;100.00;98261.38;5061465;28;20978;-78
2022/08/21 06:00:50;;;;;;;4.50;3.00;;;14.20;98.00;;;15.11;100.00;98249.59;5062932;28;20487;-78
2022/08/21 06:03:22;;;;;;;12.10;3.50;;;14.20;98.00;;;15.14;100.00;98251.00;5062306;28;20467;-78
2022/08/21 06:05:54;;;;;;;3.93;2.40;;;14.20;98.00;;;15.18;100.00;98248.75;5064159;28;20943;-78
2022/08/21 06:08:24;;;;;;;8.67;3.80;;;14.30;98.10;;;15.24;100.00;98248.72;5065762;28;20513;-78
2022/08/21 06:10:56;;;;;;;6.23;3.03;;;14.30;98.00;;;15.27;100.00;98250.16;5062483;28;21372;-78
2022/08/21 06:13:26;;;;;;;6.13;3.27;;;14.40;98.00;;;15.31;100.00;98244.22;5063792;28;20541;-78
2022/08/21 06:16:05;;;;;;;9.00;3.60;;;14.40;97.90;;;15.33;100.00;98251.94;5060701;28;20468;-79
2022/08/21 06:18:35;;;;;;;8.90;3.23;;;14.50;97.70;;;15.34;100.00;98243.00;5064326;28;20556;-78
2022/08/21 06:21:06;;;;;;;5.17;3.37;;;14.50;97.90;;;15.37;100.00;98239.94;5064858;28;20452;-77
2022/08/21 06:23:36;;;;;;;10.50;3.43;;;14.50;97.90;;;15.42;100.00;98240.09;5066041;28;20456;-78
2022/08/21 06:26:07;;;;;;;5.13;2.60;;;14.50;97.90;;;15.49;100.00;98231.16;5066165;28;20447;-78
2022/08/21 06:28:37;;;;;;;11.63;3.17;;;14.60;98.10;;;15.55;100.00;98232.94;5063776;28;20519;-78
2022/08/21 06:31:14;;;;;;;10.03;3.40;;;14.60;98.10;;;15.58;100.00;98223.81;5064798;28;20484;-78
2022/08/21 06:33:43;;;;;;;5.50;2.80;;;14.70;98.00;;;15.64;100.00;98227.41;5064127;28;20476;-78
2022/08/21 06:36:14;;;;;;;4.80;3.07;;;14.70;98.10;;;15.70;100.00;98231.81;5080576;28;20570;-78
2022/08/21 06:38:43;;;;;;;5.83;3.20;;;14.70;98.10;;;15.75;100.00;98230.16;5064926;28;20527;-78
2022/08/21 06:41:19;;;;;;;3.80;2.50;;;14.80;98.10;;;15.82;100.00;98232.75;5061621;28;20471;-78
2022/08/21 06:43:54;;;;;;;5.07;2.90;;;14.90;98.00;;;15.87;100.00;98228.44;5063800;28;20447;-78
2022/08/21 06:46:23;;;;;;;6.90;3.27;;;14.90;97.90;;;15.95;100.00;98230.81;5063326;28;20459;-78
2022/08/21 06:48:51;;;;;;;8.93;3.00;;;15.00;98.00;;;16.00;100.00;98224.88;5063019;28;20461;-78
2022/08/21 06:51:22;;;;;;;14.30;5.70;;;15.00;98.10;;;16.06;100.00;98227.47;5063590;28;20472;-78
2022/08/21 06:53:51;;;;;;;8.07;3.27;;;15.10;98.10;;;16.13;100.00;98234.50;5064827;28;20468;-78
2022/08/21 06:56:20;;;;;;;9.23;3.50;;;15.20;98.20;;;16.18;100.00;98222.25;5063047;28;20467;-78
2022/08/21 06:58:48;;;;;;;8.80;3.37;;;15.20;98.10;;;16.23;100.00;98227.69;5061602;28;20464;-78
2022/08/21 07:01:17;;;;;;;3.63;2.60;;;15.30;98.20;;;16.30;100.00;98222.34;5060704;28;20496;-78
2022/08/21 07:03:46;;;;;;;12.90;3.60;;;15.40;98.30;;;16.36;100.00;98218.84;5063159;28;20500;-78
2022/08/21 07:06:15;;;;;;;8.37;3.47;;;15.40;98.20;;;16.43;100.00;98217.75;5061942;28;21029;-78
2022/08/21 07:08:45;;;;;;;3.70;2.80;;;15.50;98.30;;;16.48;100.00;98223.19;5060964;28;20448;-78
2022/08/21 07:11:20;;;;;;;6.33;2.70;;;15.50;98.40;;;16.54;100.00;98227.56;5062244;28;20573;-78
2022/08/21 07:13:51;;;;;;;6.30;3.13;;;15.50;98.30;;;16.61;100.00;98227.53;5062326;28;20492;-78
2022/08/21 07:16:20;;;;;;;5.97;2.83;;;15.60;98.30;;;16.68;100.00;98222.16;5061166;28;20914;-78
2022/08/21 07:18:49;;;;;;;6.47;3.10;;;15.70;98.30;;;16.72;100.00;98213.59;5062465;28;20514;-78
2022/08/21 07:21:18;;;;;;;7.77;3.00;;;15.80;98.30;;;16.80;100.00;98220.41;5063427;28;20492;-78
2022/08/21 07:23:55;;;;;;;6.23;3.00;;;15.80;98.30;;;16.87;100.00;98218.50;5061156;28;20491;-78
2022/08/21 07:26:26;;;;;;;7.03;3.03;;;15.90;98.40;;;16.94;100.00;98208.63;5063082;28;20899;-78
2022/08/21 07:28:55;;;;;;;9.53;3.60;;;16.00;98.40;;;17.00;100.00;98207.75;5063175;28;20491;-78
2022/08/21 07:31:26;;;;;;;9.53;3.20;;;16.10;98.20;;;17.06;100.00;98207.66;5061197;28;20533;-89
2022/08/21 07:33:55;;;;;;;35.33;13.60;;;16.20;98.20;;;17.13;100.00;98202.28;5066935;28;20800;-78
2022/08/21 07:36:24;;;;;;;6.10;3.70;;;16.20;98.20;;;17.21;100.00;98201.97;5061197;28;20833;-79
2022/08/21 07:38:55;;;;;;;8.77;3.60;;;16.30;98.20;;;17.28;100.00;98189.47;5057507;28;21092;-78
2022/08/21 07:41:28;;;;;;;7.30;3.20;;;16.40;98.10;;;17.36;100.00;98186.47;5061348;28;20521;-78
2022/08/21 07:43:59;;;;;;;8.23;2.87;;;16.50;98.00;;;17.45;100.00;98194.88;5059667;28;21099;-78
2022/08/21 07:46:28;;;;;;;10.10;2.93;;;16.60;98.00;;;17.53;100.00;98190.06;5061195;28;20479;-78
2022/08/21 07:48:57;;;;;;;8.77;3.03;;;16.70;97.90;;;17.60;100.00;98192.63;5058817;28;20487;-78
2022/08/21 07:51:29;;;;;;;8.63;4.00;;;16.70;97.80;;;17.70;100.00;98187.56;5059244;28;20464;-78
2022/08/21 07:54:00;;;;;;;11.30;3.77;;;16.80;97.70;;;17.78;100.00;98189.09;5059488;28;20472;-78
2022/08/21 07:56:33;;;;;;;8.90;3.10;;;16.90;97.50;;;17.86;100.00;98186.09;5059700;28;20463;-78
2022/08/21 07:59:06;;;;;;;15.33;3.70;;;17.10;97.60;;;17.95;100.00;98185.53;5063495;28;20491;-78
2022/08/21 08:01:35;;;;;;;8.17;3.20;;;17.20;97.40;;;18.04;100.00;98183.34;5063937;28;20476;-79
2022/08/21 08:04:15;;;;;;;9.50;3.60;;;17.30;97.30;;;18.15;100.00;98182.53;5074933;28;20534;-78
2022/08/21 08:06:45;;;;;;;8.63;3.53;;;17.40;97.00;;;18.24;100.00;98178.50;5063550;28;20464;-78
2022/08/21 08:09:16;;;;;;;9.00;3.33;;;17.50;96.70;;;18.34;99.34;98178.69;5064646;28;20496;-78
2022/08/21 08:11:48;;;;;;;11.10;2.93;;;17.60;96.80;;;18.45;97.38;98180.53;5059948;28;20487;-79
2022/08/21 08:14:18;;;;;;;7.43;3.07;;;17.80;96.30;;;18.56;96.17;98174.44;5062501;28;20515;-79
2022/08/21 08:16:58;;;;;;;9.10;3.00;;;17.90;96.10;;;18.69;94.74;98169.91;5076811;28;20475;-79
2022/08/21 08:19:30;;;;;;;7.67;2.60;;;18.00;95.80;;;18.81;92.78;98176.75;5062528;28;21072;-78
2022/08/21 08:22:13;;;;;;;10.37;3.10;;;18.20;95.60;;;18.94;91.35;98170.38;5062022;28;20483;-78
2022/08/21 08:24:45;;;;;;;151.40;83.27;;;18.40;95.30;;;19.07;91.08;98173.53;5062336;28;21275;-79
2022/08/21 08:27:17;;;;;;;18.33;5.40;;;18.40;94.90;;;19.17;90.44;98170.25;5062977;28;20466;-78
2022/08/21 08:29:48;;;;;;;14.23;3.20;;;18.40;94.70;;;19.27;89.11;98165.13;5076683;28;21292;-78
2022/08/21 08:32:16;;;;;;;10.17;3.03;;;18.60;94.60;;;19.37;85.37;98167.94;5061341;28;20456;-79
2022/08/21 08:34:46;;;;;;;7.97;2.83;;;18.80;94.00;;;19.50;84.48;98170.34;5060965;28;20452;-78
2022/08/21 08:37:16;;;;;;;6.30;2.60;;;18.90;93.70;;;19.63;83.71;98171.06;5078844;28;20962;-79
2022/08/21 08:39:47;;;;;;;8.07;2.40;;;19.00;93.70;;;19.71;83.68;98162.69;5062378;28;21034;-79
2022/08/21 08:42:29;;;;;;;36.40;17.50;;;19.10;93.70;;;19.84;82.66;98178.28;5061920;28;20525;-78
2022/08/21 08:45:07;;;;;;;10.37;4.57;;;19.20;93.50;;;19.92;81.97;98173.34;5063599;28;20904;-78
2022/08/21 08:47:41;;;;;;;11.10;2.63;;;19.20;93.20;;;20.02;81.97;98170.06;5061445;28;21128;-79
2022/08/21 08:50:20;;;;;;;5.80;2.63;;;19.30;93.40;;;20.10;81.28;98169.63;5061908;28;20464;-77
2022/08/21 08:52:57;;;;;;;12.33;3.50;;;19.40;93.00;;;20.19;80.15;98168.16;5065847;28;20525;-78
2022/08/21 08:55:36;;;;;;;8.67;3.13;;;19.40;92.60;;;20.30;78.40;98161.97;5061431;28;20477;-79
2022/08/21 08:58:05;;;;;;;9.20;2.80;;;19.60;92.30;;;20.40;76.72;98153.31;5061806;28;20540;-79
2022/08/21 09:00:35;;;;;;;9.97;3.30;;;19.80;92.20;;;20.50;76.72;98154.25;5065204;28;21032;-79
2022/08/21 09:03:04;;;;;;;12.37;2.90;;;19.90;92.10;;;20.63;75.91;98152.25;5062296;28;20495;-79
2022/08/21 09:05:46;;;;;;;6.07;2.40;;;20.00;92.10;;;20.77;74.81;98145.50;5061411;28;20520;-78
2022/08/21 09:08:41;;;;;;;11.10;2.37;;;20.20;91.80;;;20.90;72.80;98140.59;5061926;28;20509;-78
2022/08/21 09:11:26;;;;;;;16.00;2.77;;;20.40;91.40;;;21.04;72.51;98141.00;5061378;28;20465;-79
2022/08/21 09:14:11;;;;;;;5.00;2.13;;;20.50;91.30;;;21.21;71.88;98141.72;5062369;28;20488;-78
2022/08/21 09:16:51;;;;;;;6.63;2.33;;;20.60;91.30;;;21.34;71.77;98136.00;5060253;28;20525;-78
2022/08/21 09:19:53;;;;;;;8.37;2.27;;;20.70;91.30;;;21.48;70.75;98137.19;5063895;28;20545;-78
2022/08/21 09:22:38;;;;;;;7.23;2.70;;;20.90;91.00;;;21.63;69.46;98133.81;5061000;28;20464;-79
2022/08/21 09:25:21;;;;;;;15.97;5.60;;;21.10;90.70;;;21.73;68.29;98135.75;5065870;28;20452;-79
2022/08/21 09:27:54;;;;;;;8.20;2.77;;;21.10;90.50;;;21.77;67.27;98134.16;5062007;28;20514;-79
2022/08/21 09:30:31;;;;;;;9.77;2.73;;;21.10;90.10;;;21.80;65.42;98129.13;5061491;28;20975;-79
2022/08/21 09:33:00;;;;;;;9.70;2.43;;;21.10;89.80;;;21.87;66.24;98134.22;5063082;28;20813;-78
2022/08/21 09:35:29;;;;;;;8.10;3.10;;;21.20;90.30;;;21.92;65.86;98137.75;5063760;28;20854;-79
2022/08/21 09:38:04;;;;;;;5.17;2.33;;;21.40;90.00;;;21.97;64.17;98129.78;5064348;28;20461;-79
2022/08/21 09:40:41;;;;;;;7.47;2.30;;;21.30;89.00;;;22.02;64.70;98121.03;5059948;28;20456;-78
2022/08/21 09:43:20;;;;;;;9.67;2.87;;;21.40;89.30;;;22.05;64.57;98123.97;5061348;28;20964;-78
2022/08/21 09:46:04;;;;;;;7.60;2.47;;;21.40;89.10;;;22.07;62.99;98118.41;5060517;28;20455;-79
2022/08/21 09:48:45;;;;;;;5.60;2.60;;;21.50;88.60;;;22.09;63.25;98121.59;5059078;28;20467;-79
2022/08/21 09:51:20;;;;;;;9.20;2.67;;;21.40;88.20;;;22.11;62.79;98116.03;5060805;28;20526;-78
2022/08/21 09:53:55;;;;;;;9.70;2.67;;;21.40;88.30;;;22.11;62.34;98108.81;5062742;28;20459;-79
2022/08/21 09:59:30;;;;;;;8.10;4.27;;;21.50;87.50;;;22.21;61.66;98110.75;5062277;28;20907;-79
2022/08/21 10:02:26;;;;;;;14.33;2.77;;;21.50;87.50;;;22.26;61.41;98100.91;5063331;28;20469;-78
2022/08/21 10:05:00;;;;;;;7.93;2.63;;;21.50;87.30;;;22.32;60.82;98107.06;5065196;28;20483;-79
2022/08/21 10:07:32;;;;;;;10.10;2.80;;;21.50;87.30;;;22.35;59.40;98093.22;5064272;28;21137;-79
2022/08/21 10:10:09;;;;;;;7.20;3.00;;;21.60;85.90;;;22.41;58.76;98092.16;5063377;28;20480;-79
2022/08/21 10:12:56;;;;;;;9.70;3.17;;;21.80;85.90;;;22.46;59.27;98090.31;5063393;28;21300;-78
2022/08/21 10:15:48;;;;;;;5.03;1.90;;;21.70;86.80;;;22.58;59.53;98090.88;5064424;28;20470;-78
2022/08/21 10:18:27;;;;;;;9.67;2.70;;;21.90;86.80;;;22.67;58.48;98083.19;5061265;28;20795;-79
2022/08/21 10:21:08;;;;;;;7.10;2.87;;;22.00;86.60;;;22.76;58.17;98083.47;5062286;28;20521;-79
2022/08/21 10:24:01;;;;;;;9.30;2.53;;;22.20;85.60;;;22.85;55.11;98081.88;5061085;28;20522;-79
2022/08/21 10:26:54;;;;;;;7.53;2.33;;;22.20;83.10;;;22.93;55.86;98074.19;5060477;28;20962;-79
2022/08/21 10:29:45;;;;;;;5.40;2.70;;;22.30;84.00;;;23.01;54.37;98078.19;5056955;28;20526;-79
2022/08/21 10:32:37;;;;;;;7.43;2.87;;;22.40;83.10;;;23.08;53.86;98075.25;5060902;28;20460;-78
2022/08/21 10:35:15;;;;;;;9.03;2.50;;;22.50;82.60;;;23.13;54.08;98080.56;5060094;28;20999;-88
2022/08/21 10:38:08;;;;;;;8.33;3.20;;;22.50;83.20;;;23.15;53.99;98081.91;5058591;28;20468;-79
2022/08/21 10:40:49;;;;;;;6.70;3.23;;;22.40;82.90;;;23.24;54.36;98074.97;5060346;28;20933;-79